Time;durP1;ratioP1;P1;durP2;ratioP2;P2;SDS_P1;SDS_P2;PMS_P1;PMS_P2;Temp;Humidity;BMP_temperature;BMP_pressure;BME280_temperature;BME280_humidity;BME280_pressure;Samples;Min_cycle;Max_cycle;Signal;HPM_P1;HPM_P2
2022/05/10 00:02:10;;;;;;;10.98;6.25;;;21.70;61.10;;;;;;5030312;28;20033;-65
2022/05/10 00:04:36;;;;;;;11.27;6.35;;;21.70;61.00;;;;;;5031310;28;20113;-65
2022/05/10 00:07:01;;;;;;;12.02;6.22;;;21.70;61.10;;;;;;5035457;28;20037;-65
2022/05/10 00:09:29;;;;;;;10.73;6.20;;;21.70;61.10;;;;;;5038205;28;20028;-66
2022/05/10 00:11:55;;;;;;;10.20;5.93;;;21.70;61.10;;;;;;5032536;28;20425;-65
2022/05/10 00:14:21;;;;;;;12.63;6.43;;;21.70;61.10;;;;;;5034934;28;20421;-66
2022/05/10 00:16:51;;;;;;;9.73;6.10;;;21.70;61.10;;;;;;5036511;28;20116;-66
2022/05/10 00:19:16;;;;;;;9.60;6.20;;;21.60;61.10;;;;;;5034814;28;20112;-65
2022/05/10 00:21:42;;;;;;;9.88;6.53;;;21.60;61.10;;;;;;5035106;28;20117;-65
2022/05/10 00:24:08;;;;;;;11.98;6.40;;;21.60;61.10;;;;;;5040228;28;20025;-64
2022/05/10 00:26:33;;;;;;;11.35;5.75;;;21.60;61.10;;;;;;5038246;28;20112;-66
2022/05/10 00:29:01;;;;;;;10.05;5.80;;;21.60;61.00;;;;;;5034025;28;20021;-66
2022/05/10 00:31:26;;;;;;;8.88;5.78;;;21.60;61.10;;;;;;5037380;28;20100;-66
2022/05/10 00:33:52;;;;;;;10.55;6.10;;;21.60;61.10;;;;;;5036837;28;20111;-66
2022/05/10 00:36:18;;;;;;;10.45;5.85;;;21.60;61.10;;;;;;5039307;28;20057;-65
2022/05/10 00:38:44;;;;;;;10.80;6.15;;;21.60;61.10;;;;;;5045640;28;20468;-66
2022/05/10 00:41:30;;;;;;;9.48;5.68;;;21.60;61.10;;;;;;5034969;28;20128;-65
2022/05/10 00:44:04;;;;;;;8.75;5.80;;;21.60;61.00;;;;;;5042330;28;20037;-67
2022/05/10 00:46:32;;;;;;;9.45;5.60;;;21.50;60.90;;;;;;5033201;28;20033;-66
2022/05/10 00:49:05;;;;;;;9.95;6.03;;;21.50;61.00;;;;;;5033881;28;20029;-66
2022/05/10 00:51:33;;;;;;;9.43;5.93;;;21.50;61.10;;;;;;5052081;28;20021;-65
2022/05/10 00:54:02;;;;;;;10.32;6.10;;;21.50;61.10;;;;;;5035111;28;20029;-66
2022/05/10 00:56:38;;;;;;;11.27;5.50;;;21.50;61.10;;;;;;5033859;28;20026;-66
2022/05/10 00:59:45;;;;;;;9.48;5.85;;;21.50;61.00;;;;;;5049671;28;20116;-66
2022/05/10 01:02:33;;;;;;;9.88;5.80;;;21.50;61.10;;;;;;5057676;28;20025;-65
2022/05/10 01:05:02;;;;;;;9.85;6.18;;;21.50;61.10;;;;;;5031084;28;20063;-66
2022/05/10 01:07:38;;;;;;;8.80;5.88;;;21.50;61.10;;;;;;5030350;28;20379;-66
2022/05/10 01:10:14;;;;;;;9.60;5.30;;;21.50;61.10;;;;;;5034515;28;20025;-66
2022/05/10 01:12:48;;;;;;;8.45;5.63;;;21.50;61.00;;;;;;5037544;28;20112;-66
2022/05/10 01:15:22;;;;;;;8.70;5.18;;;21.50;61.00;;;;;;5063201;28;20053;-65
2022/05/10 01:17:47;;;;;;;9.30;5.60;;;21.40;60.90;;;;;;5029964;28;20033;-66
2022/05/10 01:20:18;;;;;;;9.10;5.32;;;21.50;60.90;;;;;;5034340;28;20502;-66
2022/05/10 01:23:03;;;;;;;10.38;6.05;;;21.40;60.90;;;;;;5069435;28;20082;-66
2022/05/10 01:25:53;;;;;;;8.23;5.30;;;21.40;61.10;;;;;;5032797;28;20026;-65
2022/05/10 01:28:26;;;;;;;8.57;5.53;;;21.40;60.90;;;;;;5036136;28;20029;-65
2022/05/10 01:30:52;;;;;;;9.23;5.50;;;21.40;61.00;;;;;;5038043;28;20025;-65
2022/05/10 01:33:47;;;;;;;8.75;5.28;;;21.40;61.00;;;;;;5036670;28;20056;-65
2022/05/10 01:36:33;;;;;;;9.00;5.50;;;21.40;61.00;;;;;;5038449;28;20123;-66
2022/05/10 01:39:03;;;;;;;8.23;5.38;;;21.40;60.90;;;;;;5037556;28;20456;-65
2022/05/10 01:41:53;;;;;;;9.38;5.47;;;21.40;61.00;;;;;;5038282;28;20048;-65
2022/05/10 01:44:42;;;;;;;8.63;5.32;;;21.40;61.00;;;;;;5032553;28;20591;-66
2022/05/10 01:47:16;;;;;;;10.00;5.63;;;21.40;61.00;;;;;;5019453;28;20260;-65
2022/05/10 01:49:54;;;;;;;8.27;5.43;;;21.40;61.00;;;;;;5032004;28;20026;-65
2022/05/10 01:52:42;;;;;;;9.05;5.10;;;21.30;61.00;;;;;;5033777;28;20028;-66
2022/05/10 01:55:19;;;;;;;8.50;5.38;;;21.30;60.90;;;;;;5029850;28;20147;-65
2022/05/10 01:57:45;;;;;;;8.68;5.47;;;21.30;60.90;;;;;;5035727;28;20802;-66
2022/05/10 02:00:19;;;;;;;7.90;4.93;;;21.30;60.90;;;;;;5040486;28;20120;-65
2022/05/10 02:02:52;;;;;;;9.40;5.25;;;21.30;60.90;;;;;;5035716;28;20098;-66
2022/05/10 02:05:32;;;;;;;8.68;5.00;;;21.30;61.00;;;;;;5034525;28;20163;-66
2022/05/10 02:08:01;;;;;;;9.15;5.40;;;21.30;61.00;;;;;;5031430;28;20356;-66
2022/05/10 02:10:47;;;;;;;8.68;5.55;;;21.30;60.90;;;;;;5028085;28;20116;-66
2022/05/10 02:13:15;;;;;;;8.20;5.22;;;21.30;61.00;;;;;;5030583;28;20132;-66
2022/05/10 02:15:53;;;;;;;7.95;4.93;;;21.30;61.00;;;;;;5036003;28;20057;-65
2022/05/10 02:18:41;;;;;;;7.63;4.93;;;21.30;61.00;;;;;;5031119;28;20024;-65
2022/05/10 02:21:16;;;;;;;8.25;5.07;;;21.20;60.90;;;;;;5043959;28;20057;-65
2022/05/10 02:23:53;;;;;;;7.75;5.05;;;21.20;60.80;;;;;;5030938;28;20091;-66
2022/05/10 02:26:53;;;;;;;8.75;4.70;;;21.20;60.90;;;;;;5034450;28;20029;-65
2022/05/10 02:29:49;;;;;;;8.90;5.05;;;21.20;60.90;;;;;;5035099;28;20056;-66
2022/05/10 02:35:12;;;;;;;8.48;4.85;;;21.20;60.90;;;;;;5030065;28;20074;-66
2022/05/10 02:37:38;;;;;;;7.68;4.80;;;21.20;60.80;;;;;;5029006;28;20043;-66
2022/05/10 02:40:04;;;;;;;8.20;4.80;;;21.20;60.80;;;;;;5027485;28;20081;-66
2022/05/10 02:42:30;;;;;;;8.02;5.25;;;21.20;60.80;;;;;;5009587;28;20271;-66
2022/05/10 02:44:56;;;;;;;7.72;4.60;;;21.10;60.80;;;;;;5031789;28;20741;-65
2022/05/10 02:47:35;;;;;;;7.60;4.70;;;21.20;60.80;;;;;;5028712;28;20040;-65
2022/05/10 02:50:00;;;;;;;7.80;4.68;;;21.10;60.70;;;;;;5029457;28;20021;-65
2022/05/10 02:52:26;;;;;;;7.80;4.43;;;21.10;60.70;;;;;;5026206;28;20514;-65
2022/05/10 02:55:00;;;;;;;7.32;4.70;;;21.10;60.70;;;;;;5024775;28;20075;-65
2022/05/10 02:57:26;;;;;;;7.65;4.25;;;21.10;60.70;;;;;;5041564;28;20605;-66
2022/05/10 02:59:53;;;;;;;8.38;4.80;;;21.10;60.80;;;;;;5031494;28;20317;-66
2022/05/10 03:02:28;;;;;;;6.93;4.25;;;21.10;60.70;;;;;;4984883;28;20132;-66
2022/05/10 03:04:58;;;;;;;8.50;4.45;;;21.10;60.70;;;;;;5014388;28;20034;-65
2022/05/10 03:07:27;;;;;;;7.35;4.45;;;21.10;60.70;;;;;;5033627;28;20386;-66
2022/05/10 03:09:53;;;;;;;7.65;4.47;;;21.10;60.70;;;;;;5030366;28;20021;-66
2022/05/10 03:12:19;;;;;;;8.05;4.45;;;21.00;60.70;;;;;;5030278;28;20038;-66
2022/05/10 03:14:44;;;;;;;8.27;4.80;;;21.10;60.70;;;;;;5030208;28;20092;-66
2022/05/10 03:17:13;;;;;;;7.53;4.43;;;21.10;60.70;;;;;;5030810;28;20033;-66
2022/05/10 03:19:39;;;;;;;8.80;4.72;;;21.00;60.70;;;;;;5032168;28;20040;-65
2022/05/10 03:22:05;;;;;;;7.25;4.22;;;21.00;60.70;;;;;;5037102;28;20070;-66
2022/05/10 03:24:31;;;;;;;7.35;4.47;;;21.00;60.70;;;;;;5037604;28;20037;-66
2022/05/10 03:26:57;;;;;;;7.65;4.40;;;21.00;60.70;;;;;;5031029;28;20120;-66
2022/05/10 03:29:22;;;;;;;6.55;4.03;;;21.00;60.70;;;;;;5027001;28;20038;-65
2022/05/10 03:31:48;;;;;;;7.43;4.10;;;21.00;60.70;;;;;;5033683;28;20029;-66
2022/05/10 03:36:58;;;;;;;7.65;4.20;;;21.00;60.80;;;;;;5034188;28;20393;-66
2022/05/10 03:39:23;;;;;;;6.90;4.25;;;21.00;60.70;;;;;;5032732;28;20029;-66
2022/05/10 03:41:49;;;;;;;8.52;4.50;;;20.90;60.70;;;;;;5029531;28;20056;-66
2022/05/10 03:44:15;;;;;;;7.30;4.25;;;21.00;60.70;;;;;;5035273;28;20033;-66
2022/05/10 03:46:40;;;;;;;7.10;4.40;;;21.00;60.70;;;;;;5038487;28;20136;-66
2022/05/10 03:49:06;;;;;;;7.70;4.50;;;21.00;60.70;;;;;;5035886;28;20042;-65
2022/05/10 03:51:32;;;;;;;7.97;4.30;;;20.90;60.70;;;;;;5033527;28;20417;-66
2022/05/10 03:54:00;;;;;;;6.95;4.28;;;20.90;60.70;;;;;;5040299;28;20391;-66
2022/05/10 03:56:26;;;;;;;7.13;3.90;;;21.00;60.80;;;;;;5038991;28;20030;-66
2022/05/10 03:58:52;;;;;;;7.80;4.45;;;20.90;60.70;;;;;;5035886;28;20038;-65
2022/05/10 04:01:19;;;;;;;6.97;4.00;;;20.90;60.80;;;;;;5042640;28;20409;-66
2022/05/10 04:03:44;;;;;;;6.50;4.07;;;20.90;60.70;;;;;;5040073;28;20041;-66
2022/05/10 04:06:10;;;;;;;7.10;4.45;;;20.90;60.70;;;;;;5037085;28;20025;-66
2022/05/10 04:08:36;;;;;;;8.25;4.53;;;20.90;60.70;;;;;;5035461;28;20218;-65
2022/05/10 04:11:03;;;;;;;7.38;4.22;;;20.90;60.70;;;;;;5042377;28;20467;-65
2022/05/10 04:13:29;;;;;;;7.00;4.28;;;20.80;60.70;;;;;;5038705;28;20037;-65
2022/05/10 04:15:55;;;;;;;7.95;4.30;;;20.90;60.70;;;;;;5041703;28;20523;-66
2022/05/10 04:18:23;;;;;;;7.15;4.03;;;20.90;60.70;;;;;;5035226;28;20469;-65
2022/05/10 04:20:49;;;;;;;7.20;4.07;;;20.90;60.70;;;;;;5037315;28;20017;-65
2022/05/10 04:23:16;;;;;;;8.07;4.30;;;20.80;60.80;;;;;;5036739;28;20040;-65
2022/05/10 04:25:42;;;;;;;8.25;4.18;;;20.80;60.70;;;;;;5030987;28;20030;-66
2022/05/10 04:28:08;;;;;;;8.43;4.45;;;20.80;60.80;;;;;;5037377;28;20172;-66
2022/05/10 04:30:35;;;;;;;7.90;4.10;;;20.80;60.70;;;;;;5037510;28;20028;-65
2022/05/10 04:33:00;;;;;;;8.40;4.55;;;20.80;60.80;;;;;;5036961;28;20091;-65
2022/05/10 04:35:26;;;;;;;7.13;4.15;;;20.80;60.90;;;;;;5043559;28;20448;-66
2022/05/10 04:37:51;;;;;;;6.53;3.88;;;20.80;60.90;;;;;;5036704;28;20051;-66
2022/05/10 04:43:13;;;;;;;8.80;4.18;;;20.80;61.00;;;;;;5040220;28;20144;-66
2022/05/10 04:45:39;;;;;;;6.70;3.88;;;20.80;61.10;;;;;;5039015;28;20495;-66
2022/05/10 04:48:05;;;;;;;8.05;4.07;;;20.80;61.20;;;;;;5037499;28;20037;-66
2022/05/10 04:50:31;;;;;;;8.55;4.07;;;20.80;61.10;;;;;;5038799;28;20036;-66
2022/05/10 04:52:56;;;;;;;8.43;4.30;;;20.80;61.00;;;;;;5041891;28;20141;-66
2022/05/10 04:55:22;;;;;;;8.77;4.13;;;20.80;60.90;;;;;;5038452;28;20031;-66
2022/05/10 04:57:48;;;;;;;7.65;4.07;;;20.80;61.00;;;;;;5039530;28;20112;-66
2022/05/10 05:00:14;;;;;;;6.13;3.75;;;20.80;60.90;;;;;;5038580;28;20588;-66
2022/05/10 05:02:40;;;;;;;7.25;3.88;;;20.80;60.80;;;;;;5045155;28;20025;-66
2022/05/10 05:05:06;;;;;;;6.78;3.92;;;20.80;60.90;;;;;;5041381;28;20265;-66
2022/05/10 05:07:32;;;;;;;8.30;4.10;;;20.80;60.80;;;;;;5036341;28;20041;-66
2022/05/10 05:09:58;;;;;;;8.75;4.20;;;20.80;61.00;;;;;;5037607;28;20021;-67
2022/05/10 05:12:24;;;;;;;7.60;3.90;;;20.80;61.00;;;;;;5034022;28;20129;-66
2022/05/10 05:14:49;;;;;;;8.38;4.13;;;20.80;60.90;;;;;;5041734;28;20030;-66
2022/05/10 05:17:16;;;;;;;6.60;3.70;;;20.80;61.10;;;;;;5042518;28;20091;-66
2022/05/10 05:19:41;;;;;;;9.13;3.58;;;20.80;61.10;;;;;;5042374;28;20509;-67
2022/05/10 05:22:07;;;;;;;7.60;3.67;;;20.80;61.10;;;;;;5033504;28;20036;-67
2022/05/10 05:24:33;;;;;;;7.55;4.18;;;20.80;61.00;;;;;;5034127;28;20032;-66
2022/05/10 05:26:58;;;;;;;11.93;4.20;;;20.80;61.20;;;;;;5032680;28;20640;-66
2022/05/10 05:29:24;;;;;;;10.98;4.30;;;20.80;62.00;;;;;;5046048;28;20104;-67
2022/05/10 05:31:50;;;;;;;9.95;4.10;;;20.80;62.10;;;;;;5034549;28;20442;-67
2022/05/10 05:34:16;;;;;;;11.25;4.25;;;20.80;62.20;;;;;;5038927;28;20090;-66
2022/05/10 05:36:42;;;;;;;11.38;4.40;;;20.80;62.30;;;;;;5041495;28;20033;-67
2022/05/10 05:39:08;;;;;;;10.57;4.53;;;20.80;62.40;;;;;;5040662;28;20049;-67
2022/05/10 05:41:34;;;;;;;8.27;4.38;;;20.80;62.50;;;;;;5038905;28;20033;-67
2022/05/10 05:43:59;;;;;;;10.55;4.45;;;20.80;62.90;;;;;;5039931;28;20674;-67
2022/05/10 05:46:25;;;;;;;11.43;3.88;;;20.80;63.00;;;;;;5035693;28;20465;-67
2022/05/10 05:48:51;;;;;;;11.68;4.22;;;20.80;62.70;;;;;;5030624;28;20765;-66
2022/05/10 05:51:17;;;;;;;11.73;4.15;;;20.80;62.90;;;;;;5031955;28;20039;-67
2022/05/10 05:53:42;;;;;;;9.90;4.90;;;20.80;63.10;;;;;;5034843;28;20033;-67
2022/05/10 05:56:09;;;;;;;12.27;4.20;;;20.70;63.20;;;;;;5033045;28;20033;-67
2022/05/10 05:58:35;;;;;;;10.93;4.32;;;20.80;62.60;;;;;;5029917;28;20486;-67
2022/05/10 06:01:01;;;;;;;12.27;4.32;;;20.70;63.00;;;;;;5037689;28;20099;-66
2022/05/10 06:03:27;;;;;;;9.48;4.20;;;20.80;63.00;;;;;;5037691;28;20026;-67
2022/05/10 06:05:53;;;;;;;10.40;4.13;;;20.70;62.80;;;;;;5032682;28;20033;-67
2022/05/10 06:08:19;;;;;;;11.80;4.28;;;20.70;62.90;;;;;;5040437;28;20025;-67
2022/05/10 06:10:50;;;;;;;11.13;4.20;;;20.70;62.80;;;;;;5033478;28;20033;-67
2022/05/10 06:13:18;;;;;;;10.45;4.22;;;20.70;62.90;;;;;;5035642;28;20040;-67
2022/05/10 06:15:44;;;;;;;10.52;4.30;;;20.70;62.80;;;;;;5033852;28;20133;-67
2022/05/10 06:18:09;;;;;;;8.68;4.00;;;20.70;63.80;;;;;;5031152;28;20552;-67
2022/05/10 06:20:35;;;;;;;8.32;4.20;;;20.80;63.80;;;;;;5038002;28;20494;-67
2022/05/10 06:23:01;;;;;;;8.38;4.20;;;20.70;62.60;;;;;;5039468;28;20057;-67
2022/05/10 06:25:28;;;;;;;10.93;4.18;;;20.80;62.70;;;;;;5031279;28;20064;-67
2022/05/10 06:27:54;;;;;;;8.38;4.18;;;20.70;62.60;;;;;;5034309;28;20395;-67
2022/05/10 06:30:20;;;;;;;11.15;4.05;;;20.70;62.60;;;;;;5033109;28;20029;-67
2022/05/10 06:32:46;;;;;;;9.52;4.20;;;20.70;62.60;;;;;;5033478;28;20033;-67
2022/05/10 06:35:12;;;;;;;7.93;4.05;;;20.70;62.70;;;;;;5036599;28;20045;-67
2022/05/10 06:40:22;;;;;;;11.03;4.37;;;20.70;62.80;;;;;;5031618;28;20033;-67
2022/05/10 06:42:48;;;;;;;9.82;4.20;;;20.70;62.70;;;;;;5038658;28;20422;-67
2022/05/10 06:45:16;;;;;;;9.30;4.22;;;20.70;62.60;;;;;;5031221;28;20124;-67
2022/05/10 06:47:42;;;;;;;8.32;3.80;;;20.70;62.60;;;;;;5030272;28;20101;-67
2022/05/10 06:50:11;;;;;;;9.82;4.38;;;20.70;62.60;;;;;;5033951;28;20041;-67
2022/05/10 06:52:37;;;;;;;9.65;4.28;;;20.70;62.60;;;;;;5035234;28;20018;-67
2022/05/10 06:55:03;;;;;;;7.35;3.88;;;20.70;62.60;;;;;;5040719;28;20413;-67
2022/05/10 06:57:28;;;;;;;7.95;3.95;;;20.70;62.60;;;;;;5031593;28;20083;-66
2022/05/10 06:59:54;;;;;;;7.60;3.67;;;20.70;62.60;;;;;;5032493;28;20037;-67
2022/05/10 07:02:21;;;;;;;9.35;4.07;;;20.70;62.60;;;;;;5033710;28;20113;-67
2022/05/10 07:04:47;;;;;;;8.10;4.22;;;20.70;62.60;;;;;;5033171;28;20530;-67
2022/05/10 07:07:12;;;;;;;9.05;3.67;;;20.70;62.60;;;;;;5033765;28;20027;-67
2022/05/10 07:09:38;;;;;;;8.70;4.15;;;20.70;62.60;;;;;;5037341;28;20025;-67
2022/05/10 07:12:04;;;;;;;10.85;4.38;;;20.70;62.60;;;;;;5034962;28;20055;-67
2022/05/10 07:14:29;;;;;;;8.88;3.97;;;20.70;62.60;;;;;;5032397;28;20128;-67
2022/05/10 07:16:56;;;;;;;9.02;3.72;;;20.70;62.60;;;;;;5032845;28;20443;-67
2022/05/10 07:19:22;;;;;;;8.32;4.00;;;20.70;62.60;;;;;;5032429;28;20041;-67
2022/05/10 07:21:50;;;;;;;7.50;3.67;;;20.70;62.50;;;;;;5030559;28;20029;-66
2022/05/10 07:24:19;;;;;;;8.60;4.30;;;20.70;62.60;;;;;;5033978;28;20087;-67
2022/05/10 07:26:45;;;;;;;8.57;3.90;;;20.70;63.50;;;;;;5041050;28;20395;-67
2022/05/10 07:29:11;;;;;;;7.15;3.92;;;20.70;62.40;;;;;;5029816;28;20038;-67
2022/05/10 07:31:37;;;;;;;11.85;4.05;;;20.70;62.40;;;;;;5037119;28;20511;-67
2022/05/10 07:34:02;;;;;;;10.68;4.43;;;20.70;62.40;;;;;;5032373;28;20033;-67
2022/05/10 07:36:33;;;;;;;9.93;4.25;;;20.70;62.50;;;;;;5030713;28;20163;-67
2022/05/10 07:39:00;;;;;;;6.82;3.85;;;20.70;62.60;;;;;;5029941;28;20036;-67
2022/05/10 07:41:26;;;;;;;7.55;4.05;;;20.70;62.50;;;;;;5035818;28;20670;-67
2022/05/10 07:43:52;;;;;;;8.77;3.75;;;20.70;62.60;;;;;;5034924;28;20061;-66
2022/05/10 07:46:18;;;;;;;7.90;4.18;;;20.70;62.60;;;;;;5032284;28;20042;-67
2022/05/10 07:48:44;;;;;;;8.23;4.20;;;20.80;62.50;;;;;;5032890;28;20110;-67
2022/05/10 07:51:10;;;;;;;9.55;4.40;;;20.80;62.60;;;;;;5035334;28;20033;-67
2022/05/10 07:53:36;;;;;;;7.25;4.00;;;20.80;62.50;;;;;;5030527;28;20033;-67
2022/05/10 07:56:02;;;;;;;8.13;4.15;;;20.80;62.50;;;;;;5040460;28;20040;-67
2022/05/10 07:58:28;;;;;;;8.23;4.07;;;20.80;62.40;;;;;;5036771;28;20021;-67
2022/05/10 08:00:54;;;;;;;8.00;4.20;;;20.80;62.50;;;;;;5029805;28;20120;-67
2022/05/10 08:03:20;;;;;;;7.05;4.00;;;20.90;62.60;;;;;;5030145;28;20652;-67
2022/05/10 08:05:46;;;;;;;7.82;3.92;;;20.90;62.60;;;;;;5035133;28;20033;-67
2022/05/10 08:08:13;;;;;;;8.63;4.50;;;20.90;62.60;;;;;;5035739;28;20043;-66
2022/05/10 08:10:40;;;;;;;9.75;4.05;;;20.90;62.60;;;;;;5035939;28;20033;-67
2022/05/10 08:13:09;;;;;;;8.60;4.40;;;20.90;62.50;;;;;;5030719;28;20035;-67
2022/05/10 08:15:35;;;;;;;6.97;3.78;;;20.90;62.50;;;;;;5032110;28;20124;-67
2022/05/10 08:18:01;;;;;;;6.68;3.95;;;20.90;62.50;;;;;;5030525;28;20108;-67
2022/05/10 08:20:26;;;;;;;8.25;4.00;;;20.90;62.50;;;;;;5031327;28;20120;-67
2022/05/10 08:22:52;;;;;;;8.25;4.25;;;20.90;62.50;;;;;;5033566;28;20126;-66
2022/05/10 08:25:17;;;;;;;7.60;3.95;;;20.90;62.30;;;;;;5039472;28;20179;-67
2022/05/10 08:27:43;;;;;;;8.80;4.28;;;20.90;62.30;;;;;;5030789;28;20496;-66
2022/05/10 08:30:09;;;;;;;8.93;4.03;;;20.90;62.20;;;;;;5037973;28;20597;-66
2022/05/10 08:32:35;;;;;;;7.68;3.90;;;20.90;62.10;;;;;;5034214;28;20064;-67
2022/05/10 08:35:00;;;;;;;7.15;3.80;;;20.90;62.10;;;;;;5036286;28;20075;-67
2022/05/10 08:37:26;;;;;;;10.32;4.07;;;20.90;62.20;;;;;;5039457;28;20040;-67
2022/05/10 08:39:52;;;;;;;6.65;3.67;;;20.90;62.20;;;;;;5039030;28;20537;-67
2022/05/10 08:42:23;;;;;;;7.65;3.42;;;20.90;62.20;;;;;;5033193;28;20436;-67
2022/05/10 08:45:01;;;;;;;8.52;3.80;;;20.90;62.30;;;;;;5035432;28;20148;-66
2022/05/10 08:47:27;;;;;;;6.80;3.70;;;20.90;62.20;;;;;;5044276;28;20532;-67
2022/05/10 08:50:00;;;;;;;8.27;4.10;;;20.90;62.20;;;;;;5038092;28;20064;-67
2022/05/10 08:52:30;;;;;;;8.00;3.58;;;20.90;62.20;;;;;;5032024;28;20037;-67
2022/05/10 08:54:56;;;;;;;7.63;3.97;;;20.90;62.20;;;;;;5036029;28;20095;-67
2022/05/10 08:57:53;;;;;;;8.05;4.10;;;20.90;62.30;;;;;;5039163;28;20483;-67
2022/05/10 09:00:52;;;;;;;7.68;3.45;;;20.90;62.20;;;;;;5041074;28;20060;-67
2022/05/10 09:04:02;;;;;;;6.25;3.83;;;20.90;62.20;;;;;;5037635;28;20111;-67
2022/05/10 09:06:50;;;;;;;8.32;3.90;;;20.90;62.20;;;;;;5027064;28;20068;-67
2022/05/10 09:09:28;;;;;;;9.57;4.10;;;20.90;62.20;;;;;;5005158;28;20084;-67
2022/05/10 09:12:15;;;;;;;6.75;3.67;;;20.90;62.10;;;;;;5009338;28;20120;-67
2022/05/10 09:14:51;;;;;;;6.15;3.63;;;20.90;62.10;;;;;;5027027;28;20052;-67
2022/05/10 09:17:18;;;;;;;8.40;3.75;;;20.90;62.10;;;;;;5011242;28;20422;-67
2022/05/10 09:19:43;;;;;;;9.90;3.92;;;20.90;62.10;;;;;;5025712;28;20029;-67
2022/05/10 09:22:18;;;;;;;6.40;3.60;;;20.90;62.20;;;;;;5026541;28;20521;-66
2022/05/10 09:24:53;;;;;;;6.22;3.60;;;20.90;62.10;;;;;;5029648;28;20128;-67
2022/05/10 09:27:21;;;;;;;7.22;3.70;;;20.90;61.90;;;;;;5027187;28;20045;-67
2022/05/10 09:29:50;;;;;;;6.72;3.40;;;21.00;62.00;;;;;;4992875;28;20041;-67
2022/05/10 09:35:06;;;;;;;8.05;3.58;;;21.00;63.00;;;;;;5025675;28;20092;-67
2022/05/10 09:37:36;;;;;;;7.30;3.63;;;20.90;61.90;;;;;;5039370;28;20534;-67
2022/05/10 09:40:32;;;;;;;8.20;3.63;;;21.00;62.00;;;;;;5041161;28;20057;-67
2022/05/10 09:43:25;;;;;;;6.53;3.50;;;21.00;62.00;;;;;;5015998;28;22080;-66
2022/05/10 09:46:11;;;;;;;6.47;3.63;;;20.90;61.90;;;;;;5033768;28;20060;-67
2022/05/10 09:48:40;;;;;;;6.53;3.72;;;21.00;62.00;;;;;;5039368;28;20029;-67
2022/05/10 09:51:32;;;;;;;8.52;3.70;;;21.00;62.00;;;;;;5035223;28;20029;-67
2022/05/10 09:53:58;;;;;;;7.00;3.47;;;21.00;62.00;;;;;;5037068;28;20049;-67
2022/05/10 09:56:56;;;;;;;8.02;3.30;;;21.00;62.00;;;;;;5042360;28;20037;-67
2022/05/10 09:59:22;;;;;;;6.13;3.45;;;21.00;62.00;;;;;;5028535;28;20037;-67
2022/05/10 10:01:55;;;;;;;7.68;3.78;;;21.00;62.00;;;;;;5031153;28;20026;-67
2022/05/10 10:04:31;;;;;;;6.25;3.53;;;21.00;62.00;;;;;;5067404;28;20029;-67
2022/05/10 10:07:16;;;;;;;7.32;3.58;;;21.00;61.80;;;;;;5034023;28;20029;-67
2022/05/10 10:09:44;;;;;;;6.45;3.60;;;21.10;61.80;;;;;;5032579;28;20029;-67
2022/05/10 10:12:32;;;;;;;6.57;3.40;;;21.00;61.70;;;;;;5042653;28;20055;-67
2022/05/10 10:14:58;;;;;;;5.70;3.20;;;21.00;61.80;;;;;;5029795;28;20041;-66
2022/05/10 10:17:36;;;;;;;6.72;3.58;;;21.10;61.90;;;;;;5036921;28;20028;-67
2022/05/10 10:20:14;;;;;;;7.15;3.40;;;21.10;61.90;;;;;;5042555;28;20033;-67
2022/05/10 10:22:44;;;;;;;6.63;3.47;;;21.00;62.00;;;;;;5030290;28;20029;-67
2022/05/10 10:25:39;;;;;;;5.45;3.30;;;21.10;62.00;;;;;;5032566;28;20029;-67
2022/05/10 10:28:24;;;;;;;7.75;3.38;;;21.10;62.00;;;;;;5031016;28;20386;-67
2022/05/10 10:30:59;;;;;;;6.97;3.30;;;21.10;62.00;;;;;;5030614;28;20116;-66
2022/05/10 10:33:47;;;;;;;5.15;3.20;;;21.10;61.90;;;;;;5031177;28;20103;-67
2022/05/10 10:36:24;;;;;;;6.68;3.25;;;21.10;61.80;;;;;;5039824;28;20108;-67
2022/05/10 10:38:52;;;;;;;5.88;3.33;;;21.10;61.90;;;;;;5034847;28;20531;-67
2022/05/10 10:41:44;;;;;;;7.10;3.28;;;21.10;61.90;;;;;;5030770;28;20034;-67
2022/05/10 10:44:30;;;;;;;5.22;3.05;;;21.10;61.90;;;;;;5031721;28;20120;-66
2022/05/10 10:47:16;;;;;;;5.75;3.20;;;21.10;62.00;;;;;;5064093;28;20466;-67
2022/05/10 10:49:57;;;;;;;5.32;3.20;;;21.10;62.00;;;;;;5038319;28;20033;-67
2022/05/10 10:52:23;;;;;;;6.38;3.40;;;21.10;62.00;;;;;;5033924;28;20167;-67
2022/05/10 10:54:49;;;;;;;6.13;3.10;;;21.10;61.90;;;;;;5032257;28;20044;-66
2022/05/10 10:57:44;;;;;;;5.85;3.20;;;21.10;61.90;;;;;;5033015;28;20021;-67
2022/05/10 11:00:11;;;;;;;7.80;3.60;;;21.10;62.00;;;;;;5033926;28;20501;-66
2022/05/10 11:02:55;;;;;;;5.65;3.28;;;21.10;62.00;;;;;;5035468;28;20076;-67
2022/05/10 11:05:34;;;;;;;7.35;3.20;;;21.10;62.00;;;;;;5028711;28;20014;-67
2022/05/10 11:08:18;;;;;;;6.88;2.97;;;21.20;62.10;;;;;;5034989;28;20083;-67
2022/05/10 11:11:14;;;;;;;4.60;2.70;;;21.10;62.00;;;;;;5030485;28;20028;-67
2022/05/10 11:14:16;;;;;;;5.25;3.00;;;21.10;62.00;;;;;;5037526;28;20076;-67
2022/05/10 11:17:08;;;;;;;5.80;3.15;;;21.10;62.00;;;;;;5029927;28;20124;-67
2022/05/10 11:19:58;;;;;;;4.93;2.95;;;21.20;62.10;;;;;;5032669;28;20091;-67
2022/05/10 11:22:29;;;;;;;6.70;3.30;;;21.20;62.00;;;;;;5037492;28;20060;-67
2022/05/10 11:25:02;;;;;;;5.53;3.00;;;21.20;62.00;;;;;;5029974;28;20108;-67
2022/05/10 11:27:48;;;;;;;5.50;3.10;;;21.20;61.90;;;;;;5035627;28;20021;-67
2022/05/10 11:30:20;;;;;;;6.38;2.88;;;21.20;62.00;;;;;;5029484;28;20120;-67
2022/05/10 11:33:23;;;;;;;5.18;2.90;;;21.20;62.00;;;;;;5035246;28;20457;-67
2022/05/10 11:36:21;;;;;;;6.65;3.40;;;21.20;62.00;;;;;;5032811;28;20033;-67
2022/05/10 11:38:46;;;;;;;6.80;2.75;;;21.20;61.80;;;;;;5033256;28;20520;-67
2022/05/10 11:41:34;;;;;;;6.28;3.05;;;21.20;61.80;;;;;;5031790;28;20030;-67
2022/05/10 11:44:08;;;;;;;5.72;2.90;;;21.20;61.80;;;;;;5036906;28;20071;-67
2022/05/10 11:46:37;;;;;;;5.05;2.78;;;21.20;61.90;;;;;;5035679;28;20029;-67
2022/05/10 11:49:27;;;;;;;6.38;3.38;;;21.20;62.00;;;;;;5040080;28;20033;-67
2022/05/10 11:52:05;;;;;;;5.88;3.13;;;21.30;62.10;;;;;;5033583;28;20079;-67
2022/05/10 11:54:43;;;;;;;5.00;2.88;;;21.20;62.00;;;;;;5031251;28;20039;-67
2022/05/10 11:57:14;;;;;;;4.82;2.97;;;21.30;62.10;;;;;;5034443;28;20025;-67
2022/05/10 11:59:41;;;;;;;4.78;2.88;;;21.30;62.10;;;;;;5035854;28;20030;-67
2022/05/10 12:02:27;;;;;;;5.28;2.88;;;21.20;62.10;;;;;;5033786;28;20064;-67
2022/05/10 12:05:14;;;;;;;6.07;3.15;;;21.20;62.00;;;;;;5039000;28;20071;-67
2022/05/10 12:08:01;;;;;;;6.00;3.05;;;21.30;62.00;;;;;;5037740;28;20032;-67
2022/05/10 12:10:36;;;;;;;5.38;2.80;;;21.30;62.10;;;;;;5036170;28;20061;-67
2022/05/10 12:13:10;;;;;;;;;;;21.30;62.00;;;;;;5038107;28;20025;-67
2022/05/10 12:21:22;;;;;;;6.13;2.90;;;21.30;61.90;;;;;;5038954;28;20118;-67
2022/05/10 12:24:07;;;;;;;7.57;2.90;;;21.30;61.80;;;;;;5032505;28;20033;-67
2022/05/10 12:26:49;;;;;;;6.55;2.85;;;21.40;61.80;;;;;;5035163;28;20037;-67
2022/05/10 12:29:36;;;;;;;6.15;2.83;;;21.40;61.80;;;;;;5053063;28;20494;-67
2022/05/10 12:32:08;;;;;;;4.80;2.50;;;21.40;61.80;;;;;;5033192;28;20028;-67
2022/05/10 12:34:37;;;;;;;6.03;2.63;;;21.40;61.70;;;;;;5041380;28;20045;-67
2022/05/10 12:37:37;;;;;;;4.45;2.58;;;21.40;61.70;;;;;;5036330;28;20055;-67
2022/05/10 12:40:08;;;;;;;4.32;2.63;;;21.40;61.60;;;;;;5036779;28;20033;-67
2022/05/10 12:42:49;;;;;;;7.00;2.95;;;21.40;61.50;;;;;;5036549;28;20064;-67
2022/05/10 12:45:21;;;;;;;4.95;2.47;;;21.40;61.60;;;;;;5033058;28;20037;-67
2022/05/10 12:48:10;;;;;;;4.53;2.63;;;21.40;61.70;;;;;;5036622;28;20116;-67
2022/05/10 12:50:52;;;;;;;5.10;2.95;;;21.40;61.70;;;;;;5037697;28;20048;-67
2022/05/10 12:53:26;;;;;;;4.47;2.70;;;21.40;61.70;;;;;;5040406;28;20500;-67
2022/05/10 12:55:55;;;;;;;6.72;2.80;;;21.40;61.70;;;;;;5041266;28;20025;-67
2022/05/10 12:58:22;;;;;;;5.13;2.90;;;21.40;61.70;;;;;;5037494;28;20066;-67
2022/05/10 13:00:52;;;;;;;4.85;2.40;;;21.40;61.80;;;;;;5031871;28;20734;-67
2022/05/10 13:03:21;;;;;;;4.72;2.38;;;21.40;61.80;;;;;;5033583;28;20029;-67
2022/05/10 13:06:10;;;;;;;5.25;2.40;;;21.40;61.80;;;;;;5037751;28;20124;-67
2022/05/10 13:08:51;;;;;;;4.65;2.67;;;21.40;61.70;;;;;;5037213;28;20037;-67
2022/05/10 13:11:18;;;;;;;7.07;2.60;;;21.50;61.70;;;;;;5042537;28;20165;-67
2022/05/10 13:13:44;;;;;;;7.22;2.70;;;21.50;61.60;;;;;;5036071;28;20091;-67
2022/05/10 13:16:14;;;;;;;6.88;2.60;;;21.50;61.60;;;;;;5036572;28;20190;-67
2022/05/10 13:18:41;;;;;;;6.18;2.60;;;21.50;61.50;;;;;;5036188;28;20065;-67
2022/05/10 13:21:06;;;;;;;7.82;2.85;;;21.60;61.40;;;;;;5041414;28;20120;-67
2022/05/10 13:23:34;;;;;;;6.65;2.63;;;21.60;61.40;;;;;;5046007;28;20109;-66
2022/05/10 13:26:09;;;;;;;6.18;2.83;;;21.70;61.40;;;;;;5035406;28;20030;-67
2022/05/10 13:28:48;;;;;;;6.25;2.70;;;21.70;61.30;;;;;;5034882;28;20044;-66
2022/05/10 13:31:19;;;;;;;7.07;3.03;;;21.70;61.20;;;;;;5035596;28;20036;-66